createdAt,value
2023-05-16T00:00:00.945Z,13.02
2023-05-16T00:02:27.225Z,13.09
2023-05-16T00:04:53.484Z,13.04
2023-05-16T00:07:19.681Z,13.05
2023-05-16T00:09:45.904Z,13.04
2023-05-16T00:12:12.129Z,13.12
2023-05-16T00:14:38.340Z,13.02
2023-05-16T00:17:04.965Z,13.02
2023-05-16T00:19:31.358Z,12.91
2023-05-16T00:21:57.564Z,12.83
2023-05-16T00:24:23.780Z,13.04
2023-05-16T00:26:49.979Z,13.06
2023-05-16T00:29:16.212Z,12.89
2023-05-16T00:31:42.478Z,12.90
2023-05-16T00:34:08.747Z,12.89
2023-05-16T00:36:35.066Z,12.91
2023-05-16T00:39:01.320Z,12.82
2023-05-16T00:41:27.560Z,12.97
2023-05-16T00:43:53.769Z,13.03
2023-05-16T00:46:20.158Z,12.66
2023-05-16T00:48:46.478Z,12.65
2023-05-16T00:51:12.738Z,12.52
2023-05-16T00:53:38.955Z,12.45
2023-05-16T00:56:05.400Z,12.26
2023-05-16T00:58:31.616Z,12.47
2023-05-16T01:00:57.956Z,12.52
2023-05-16T01:03:24.295Z,12.20
2023-05-16T01:05:50.630Z,12.31
2023-05-16T01:08:16.837Z,12.31
2023-05-16T01:10:44.328Z,12.13
2023-05-16T01:13:11.776Z,11.99
2023-05-16T01:15:39.639Z,11.79
2023-05-16T01:18:24.768Z,11.71
2023-05-16T01:20:56.408Z,11.89
2023-05-16T01:23:41.455Z,11.86
2023-05-16T01:26:22.725Z,11.85
2023-05-16T01:28:49.628Z,11.81
2023-05-16T01:31:15.928Z,11.64
2023-05-16T01:33:42.367Z,11.88
2023-05-16T01:36:08.508Z,11.53
2023-05-16T01:38:36.445Z,11.73
2023-05-16T01:41:04.443Z,11.47
2023-05-16T01:43:32.347Z,11.19
2023-05-16T01:46:00.259Z,11.40
2023-05-16T01:48:27.143Z,11.36
2023-05-16T01:50:54.927Z,11.07
2023-05-16T01:53:28.226Z,11.13
2023-05-16T01:55:56.087Z,11.27
2023-05-16T01:58:22.628Z,11.33
2023-05-16T02:00:48.873Z,11.35
2023-05-16T02:03:15.241Z,11.05
2023-05-16T02:05:41.635Z,11.00
2023-05-16T02:08:08.181Z,11.32
2023-05-16T02:10:34.392Z,11.25
2023-05-16T02:13:00.622Z,11.29
2023-05-16T02:15:27.175Z,11.09
2023-05-16T02:17:53.672Z,10.82
2023-05-16T02:20:19.927Z,10.96
2023-05-16T02:22:46.162Z,10.87
2023-05-16T02:25:12.370Z,10.75
2023-05-16T02:27:38.582Z,10.57
2023-05-16T02:30:04.994Z,10.76
2023-05-16T02:32:31.955Z,10.81
2023-05-16T02:34:58.194Z,10.74
2023-05-16T02:37:24.411Z,10.82
2023-05-16T02:39:50.617Z,10.77
2023-05-16T02:42:16.990Z,10.68
2023-05-16T02:44:43.198Z,10.78
2023-05-16T02:47:09.396Z,10.93
2023-05-16T02:49:35.604Z,10.82
2023-05-16T02:52:01.831Z,10.94
2023-05-16T02:54:28.046Z,10.88
2023-05-16T02:56:54.251Z,10.73
2023-05-16T02:59:20.460Z,11.03
2023-05-16T03:01:46.741Z,10.83
2023-05-16T03:04:13.079Z,10.75
2023-05-16T03:06:39.340Z,10.86
2023-05-16T03:09:05.556Z,11.11
2023-05-16T03:11:31.766Z,11.20
2023-05-16T03:13:59.125Z,11.04
2023-05-16T03:16:26.551Z,10.86
2023-05-16T03:18:52.921Z,10.78
2023-05-16T03:21:19.203Z,10.75
2023-05-16T03:23:45.596Z,10.68
2023-05-16T03:26:11.839Z,10.69
2023-05-16T03:28:38.070Z,10.56
2023-05-16T03:31:04.339Z,10.40
2023-05-16T03:33:30.583Z,10.51
2023-05-16T03:35:56.789Z,10.63
2023-05-16T03:38:23.005Z,10.63
2023-05-16T03:40:49.206Z,10.50
2023-05-16T03:43:15.425Z,10.48
2023-05-16T03:45:41.660Z,10.51
2023-05-16T03:48:08.575Z,10.50
2023-05-16T03:50:34.803Z,10.36
2023-05-16T03:53:01.007Z,10.33
2023-05-16T03:55:27.362Z,10.29
2023-05-16T03:57:53.739Z,10.28
2023-05-16T04:00:19.951Z,10.50
2023-05-16T04:02:46.229Z,10.47
2023-05-16T04:05:12.597Z,10.41
2023-05-16T04:07:46.597Z,10.45
2023-05-16T04:12:54.485Z,10.21
2023-05-16T04:15:20.690Z,10.43
2023-05-16T04:17:46.958Z,10.31
2023-05-16T04:20:13.217Z,10.24
2023-05-16T04:22:39.416Z,10.27
2023-05-16T04:25:05.782Z,10.23
2023-05-16T04:27:31.989Z,10.32
2023-05-16T04:29:58.194Z,10.24
2023-05-16T04:32:24.470Z,10.44
2023-05-16T04:34:51.032Z,10.51
2023-05-16T04:37:23.652Z,10.28
2023-05-16T04:39:51.030Z,10.35
2023-05-16T04:45:00.381Z,10.34
2023-05-16T04:47:27.672Z,10.52
2023-05-16T04:49:53.901Z,10.54
2023-05-16T04:52:20.105Z,10.46
2023-05-16T04:54:46.336Z,10.47
2023-05-16T04:57:12.547Z,10.33
2023-05-16T04:59:38.738Z,10.17
2023-05-16T05:02:05.132Z,10.41
2023-05-16T05:04:31.451Z,10.28
2023-05-16T05:06:57.702Z,10.26
2023-05-16T05:09:23.905Z,10.31
2023-05-16T05:11:50.133Z,10.23
2023-05-16T05:14:16.331Z,10.44
2023-05-16T05:16:42.534Z,10.42
2023-05-16T05:19:43.143Z,10.40
2023-05-16T05:22:09.483Z,10.45
2023-05-16T05:24:35.692Z,10.69
2023-05-16T05:27:01.911Z,10.46
2023-05-16T05:29:36.437Z,10.39
2023-05-16T05:32:02.813Z,10.57
2023-05-16T05:34:29.116Z,10.46
2023-05-16T05:36:55.332Z,10.46
2023-05-16T05:39:21.548Z,10.58
2023-05-16T05:41:54.217Z,10.52
2023-05-16T05:44:20.455Z,10.60
2023-05-16T05:46:46.660Z,10.61
2023-05-16T05:49:12.874Z,10.70
2023-05-16T05:51:52.149Z,10.70
2023-05-16T05:54:22.181Z,10.62
2023-05-16T05:56:48.414Z,10.61
2023-05-16T06:01:55.940Z,10.76
2023-05-16T06:04:22.199Z,10.67
2023-05-16T06:06:48.413Z,10.61
2023-05-16T06:09:14.630Z,10.57
2023-05-16T06:11:41.299Z,10.62
2023-05-16T06:14:07.515Z,10.72
2023-05-16T06:16:33.809Z,10.66
2023-05-16T06:19:00.164Z,10.73
2023-05-16T06:21:26.408Z,10.75
2023-05-16T06:23:52.621Z,10.81
2023-05-16T06:26:18.832Z,10.76
2023-05-16T06:28:45.064Z,10.89
2023-05-16T06:31:11.297Z,10.93
2023-05-16T06:33:37.564Z,11.11
2023-05-16T06:36:03.772Z,11.02
2023-05-16T06:41:39.636Z,10.92
2023-05-16T06:44:05.959Z,11.01
2023-05-16T06:46:32.320Z,10.80
2023-05-16T06:51:39.913Z,11.00
2023-05-16T06:54:06.166Z,11.03
2023-05-16T06:56:37.259Z,10.82
2023-05-16T06:59:03.510Z,10.90
2023-05-16T07:04:10.111Z,10.89
2023-05-16T07:06:36.470Z,10.77
2023-05-16T07:09:02.725Z,10.79
2023-05-16T07:11:29.037Z,10.78
2023-05-16T07:13:55.286Z,10.85
2023-05-16T07:16:21.571Z,10.88
2023-05-16T07:18:47.887Z,10.80
2023-05-16T07:21:14.175Z,10.74
2023-05-16T07:23:40.454Z,10.71
2023-05-16T07:26:06.705Z,10.72
2023-05-16T07:28:32.963Z,10.73
2023-05-16T07:30:59.219Z,10.92
2023-05-16T07:33:25.464Z,11.05
2023-05-16T07:35:54.234Z,10.76
2023-05-16T07:38:27.457Z,10.79
2023-05-16T07:40:53.743Z,10.57
2023-05-16T07:43:20.003Z,10.57
2023-05-16T07:45:46.280Z,10.66
2023-05-16T07:48:12.593Z,10.63
2023-05-16T07:50:38.912Z,10.60
2023-05-16T07:53:05.160Z,10.78
2023-05-16T07:55:31.430Z,10.90
2023-05-16T07:57:58.010Z,10.79
2023-05-16T08:00:24.527Z,10.72
2023-05-16T08:02:51.175Z,10.74
2023-05-16T08:05:17.665Z,10.86
2023-05-16T08:07:46.427Z,10.82
2023-05-16T08:10:13.604Z,10.78
2023-05-16T08:12:40.047Z,10.86
2023-05-16T08:15:06.640Z,10.98
2023-05-16T08:17:32.937Z,11.10
2023-05-16T08:19:59.279Z,11.00
2023-05-16T08:22:25.737Z,11.01
2023-05-16T08:24:52.001Z,11.23
2023-05-16T08:27:18.285Z,11.26
2023-05-16T08:29:44.533Z,11.39
2023-05-16T08:32:14.855Z,11.43
2023-05-16T08:34:44.663Z,11.46
2023-05-16T08:37:11.809Z,11.55
2023-05-16T08:39:41.177Z,11.67
2023-05-16T08:42:07.536Z,11.76
2023-05-16T08:44:34.093Z,11.86
2023-05-16T08:47:03.279Z,13.11
2023-05-16T08:49:32.410Z,14.03
2023-05-16T08:51:59.868Z,13.80
2023-05-16T08:54:28.386Z,13.72
2023-05-16T08:57:05.993Z,12.97
2023-05-16T08:59:36.363Z,12.51
2023-05-16T09:02:04.663Z,12.26
2023-05-16T09:04:30.961Z,12.21
2023-05-16T09:06:57.538Z,12.27
2023-05-16T09:09:27.742Z,12.36
2023-05-16T09:11:56.369Z,12.26
2023-05-16T09:14:22.611Z,12.82
2023-05-16T09:17:28.499Z,12.81
2023-05-16T09:20:16.058Z,12.65
2023-05-16T09:22:58.424Z,12.69
2023-05-16T09:25:31.514Z,12.28
2023-05-16T09:27:58.968Z,12.40
2023-05-16T09:30:29.049Z,12.61
2023-05-16T09:32:55.369Z,12.23
2023-05-16T09:35:39.098Z,12.40
2023-05-16T09:38:12.635Z,12.35
2023-05-16T09:40:40.364Z,12.43
2023-05-16T09:43:06.876Z,12.66
2023-05-16T09:45:33.576Z,12.79
2023-05-16T09:48:02.128Z,12.68
2023-05-16T09:50:28.398Z,14.05
2023-05-16T09:52:54.661Z,14.45
2023-05-16T09:55:20.924Z,13.47
2023-05-16T09:57:47.226Z,12.86
2023-05-16T10:00:13.642Z,13.27
2023-05-16T10:02:40.014Z,13.61
2023-05-16T10:05:06.504Z,13.15
2023-05-16T10:07:32.764Z,12.97
2023-05-16T10:09:59.556Z,13.01
2023-05-16T10:15:21.400Z,14.68
2023-05-16T10:20:16.845Z,14.29
2023-05-16T10:22:43.602Z,15.14
2023-05-16T10:25:15.078Z,14.87
2023-05-16T10:27:41.757Z,14.96
2023-05-16T10:30:08.332Z,14.04
2023-05-16T10:32:34.663Z,13.64
2023-05-16T10:35:00.978Z,13.59
2023-05-16T10:37:27.252Z,13.80
2023-05-16T10:39:53.521Z,13.69
2023-05-16T10:42:19.913Z,13.26
2023-05-16T10:44:54.655Z,12.85
2023-05-16T10:47:28.657Z,14.07
2023-05-16T10:49:54.904Z,15.06
2023-05-16T10:58:17.240Z,16.64
2023-05-16T11:01:11.766Z,16.93
2023-05-16T11:03:38.161Z,16.84
2023-05-16T11:06:04.539Z,15.60
2023-05-16T11:08:52.648Z,15.15
2023-05-16T11:11:37.613Z,14.32
2023-05-16T11:14:03.950Z,13.90
2023-05-16T11:16:30.324Z,13.79
2023-05-16T11:19:07.334Z,14.44
2023-05-16T11:21:52.544Z,15.62
2023-05-16T11:24:37.208Z,15.17
2023-05-16T11:27:12.383Z,15.74
2023-05-16T11:29:38.681Z,16.35
2023-05-16T11:32:05.172Z,15.90
2023-05-16T11:34:31.788Z,14.81
2023-05-16T11:36:58.088Z,14.35
2023-05-16T11:39:24.535Z,15.17
2023-05-16T11:41:52.340Z,14.73
2023-05-16T11:44:18.874Z,14.32
2023-05-16T11:46:45.189Z,14.44
2023-05-16T11:49:11.517Z,15.80
2023-05-16T11:51:41.121Z,15.55
2023-05-16T11:54:08.000Z,15.53
2023-05-16T11:56:37.420Z,15.68
2023-05-16T11:59:03.694Z,15.50
2023-05-16T12:01:36.917Z,15.81
2023-05-16T12:04:10.226Z,15.73
2023-05-16T12:06:41.770Z,16.30
2023-05-16T12:12:01.997Z,17.02
2023-05-16T12:14:28.247Z,16.68
2023-05-16T12:16:55.210Z,16.64
2023-05-16T12:19:21.751Z,15.67
2023-05-16T12:21:48.084Z,14.94
2023-05-16T12:24:16.643Z,14.64
2023-05-16T12:29:47.016Z,14.60
2023-05-16T12:32:13.313Z,15.76
2023-05-16T12:34:40.061Z,16.06
2023-05-16T12:39:46.712Z,16.49
2023-05-16T12:42:13.040Z,16.11
2023-05-16T12:44:39.289Z,15.07
2023-05-16T12:47:10.912Z,15.78
2023-05-16T12:49:37.166Z,16.19
2023-05-16T12:52:03.501Z,16.07
2023-05-16T12:54:29.760Z,15.18
2023-05-16T12:56:56.014Z,14.76
2023-05-16T12:59:25.229Z,14.04
2023-05-16T13:01:51.524Z,13.76
2023-05-16T13:04:17.907Z,13.88
2023-05-16T13:06:56.635Z,13.82
2023-05-16T13:09:24.484Z,13.89
2023-05-16T13:11:51.708Z,14.27
2023-05-16T13:14:17.947Z,14.64
2023-05-16T13:16:44.238Z,14.44
2023-05-16T13:19:10.573Z,15.11
2023-05-16T13:21:36.881Z,14.67
2023-05-16T13:24:03.191Z,14.25
2023-05-16T13:26:29.438Z,13.74
2023-05-16T13:28:55.702Z,14.05
2023-05-16T13:31:22.006Z,14.42
2023-05-16T13:33:48.521Z,14.58
2023-05-16T13:36:14.775Z,14.37
2023-05-16T13:38:41.048Z,14.20
2023-05-16T13:41:07.292Z,13.35
2023-05-16T13:43:33.577Z,13.40
2023-05-16T13:46:10.942Z,14.07
2023-05-16T13:48:45.054Z,14.17
2023-05-16T13:51:11.315Z,13.54
2023-05-16T13:53:37.575Z,14.39
2023-05-16T13:56:03.876Z,14.29
2023-05-16T13:58:30.154Z,13.75
2023-05-16T14:00:56.420Z,13.50
2023-05-16T14:03:22.832Z,14.37
2023-05-16T14:05:49.145Z,14.31
2023-05-16T14:08:17.714Z,14.50
2023-05-16T14:10:43.988Z,14.54
2023-05-16T14:15:55.375Z,13.40
2023-05-16T14:21:04.071Z,13.19
2023-05-16T14:23:30.339Z,13.02
2023-05-16T14:25:56.610Z,13.70
2023-05-16T14:28:23.020Z,13.78
2023-05-16T14:30:49.269Z,13.50
2023-05-16T14:33:15.579Z,13.20
2023-05-16T14:35:41.889Z,12.65
2023-05-16T14:38:08.147Z,12.31
2023-05-16T14:40:36.108Z,12.50
2023-05-16T14:43:02.366Z,12.58
2023-05-16T14:45:28.861Z,12.64
2023-05-16T14:47:55.376Z,12.82
2023-05-16T14:50:21.688Z,13.28
2023-05-16T14:52:47.932Z,13.26
2023-05-16T14:55:14.194Z,12.93
2023-05-16T14:57:41.299Z,12.92
2023-05-16T15:00:08.661Z,12.32
2023-05-16T15:02:34.963Z,12.09
2023-05-16T15:05:01.361Z,12.78
2023-05-16T15:07:27.690Z,12.88
2023-05-16T15:09:53.963Z,12.77
2023-05-16T15:12:20.205Z,12.88
2023-05-16T15:14:46.493Z,13.08
2023-05-16T15:17:12.773Z,12.92
2023-05-16T15:19:39.054Z,12.86
2023-05-16T15:22:05.309Z,12.83
2023-05-16T15:24:31.621Z,12.73
2023-05-16T15:26:57.976Z,12.70
2023-05-16T15:29:25.134Z,12.85
2023-05-16T15:31:51.423Z,12.42
2023-05-16T15:34:17.701Z,12.14
2023-05-16T15:36:43.950Z,12.10
2023-05-16T15:39:13.322Z,12.09
2023-05-16T15:44:23.312Z,12.12
2023-05-16T15:49:57.652Z,11.97
2023-05-16T15:58:45.097Z,11.78
2023-05-16T16:01:11.449Z,12.23
2023-05-16T16:03:37.911Z,12.04
2023-05-16T16:06:04.508Z,12.08
2023-05-16T16:08:30.811Z,11.95
2023-05-16T16:10:57.118Z,11.86
2023-05-16T16:13:23.384Z,11.84
2023-05-16T16:15:49.916Z,11.80
2023-05-16T16:18:16.205Z,11.79
2023-05-16T16:20:42.482Z,11.99
2023-05-16T16:23:08.865Z,12.00
2023-05-16T16:25:35.145Z,12.01
2023-05-16T16:28:01.405Z,11.77
2023-05-16T16:30:28.010Z,11.86
2023-05-16T16:32:54.323Z,12.21
2023-05-16T16:35:23.964Z,12.62
2023-05-16T16:38:04.952Z,12.50
2023-05-16T16:40:32.898Z,12.41
2023-05-16T16:42:59.157Z,12.28
2023-05-16T16:45:25.747Z,12.40
2023-05-16T16:47:52.577Z,12.39
2023-05-16T16:50:19.090Z,12.28
2023-05-16T16:52:45.484Z,12.12
2023-05-16T16:55:11.764Z,11.80
2023-05-16T16:57:38.024Z,11.58
2023-05-16T17:00:04.563Z,11.56
2023-05-16T17:02:30.899Z,11.74
2023-05-16T17:04:57.251Z,12.07
2023-05-16T17:07:23.506Z,11.91
2023-05-16T17:09:49.844Z,11.63
2023-05-16T17:12:16.130Z,11.59
2023-05-16T17:14:42.421Z,11.45
2023-05-16T17:17:08.958Z,11.32
2023-05-16T17:19:35.263Z,11.12
2023-05-16T17:22:01.533Z,11.08
2023-05-16T17:24:27.895Z,10.94
2023-05-16T17:26:54.192Z,10.94
2023-05-16T17:29:20.514Z,10.76
2023-05-16T17:31:46.806Z,10.50
2023-05-16T17:34:13.063Z,10.41
2023-05-16T17:36:39.350Z,10.47
2023-05-16T17:39:05.614Z,10.48
2023-05-16T17:41:31.918Z,10.37
2023-05-16T17:43:58.236Z,10.19
2023-05-16T17:46:24.517Z,10.22
2023-05-16T17:48:50.892Z,10.16
2023-05-16T17:51:17.225Z,10.22
2023-05-16T17:53:46.122Z,10.20
2023-05-16T17:56:12.402Z,10.30
2023-05-16T17:58:41.113Z,10.22
2023-05-16T18:01:07.370Z,10.22
2023-05-16T18:03:33.621Z,10.11
2023-05-16T18:05:59.992Z,10.08
2023-05-16T18:08:26.322Z,10.06
2023-05-16T18:10:53.123Z,10.02
2023-05-16T18:13:19.507Z,10.00
2023-05-16T18:15:45.775Z,9.92
2023-05-16T18:18:12.155Z,9.85
2023-05-16T18:20:38.523Z,9.80
2023-05-16T18:23:04.837Z,9.82
2023-05-16T18:25:31.119Z,9.87
2023-05-16T18:28:11.962Z,9.69
2023-05-16T18:30:47.739Z,9.62
2023-05-16T18:44:57.428Z,9.59
2023-05-16T18:47:23.756Z,9.42
2023-05-16T18:49:50.148Z,9.39
2023-05-16T18:52:16.509Z,9.28
2023-05-16T18:54:42.784Z,9.18
2023-05-16T18:57:09.041Z,9.05
2023-05-16T19:02:37.981Z,8.98
2023-05-16T19:11:12.793Z,8.70
2023-05-16T19:16:33.654Z,8.54
2023-05-16T19:21:59.828Z,8.64
2023-05-16T19:24:26.075Z,8.71
2023-05-16T19:26:52.330Z,8.76
2023-05-16T19:29:18.564Z,8.73
2023-05-16T19:31:44.849Z,8.91
2023-05-16T19:34:11.151Z,8.91
2023-05-16T19:36:37.442Z,8.77
2023-05-16T19:39:03.880Z,8.79
2023-05-16T19:41:30.132Z,8.70
2023-05-16T19:43:56.399Z,8.78
2023-05-16T19:46:22.799Z,8.76
2023-05-16T19:48:49.236Z,8.70
2023-05-16T19:51:16.659Z,8.73
2023-05-16T19:53:45.736Z,8.63
2023-05-16T19:56:12.003Z,8.54
2023-05-16T19:58:38.331Z,8.59
2023-05-16T20:01:04.623Z,8.49
2023-05-16T20:03:31.013Z,8.61
2023-05-16T20:05:57.341Z,8.57
2023-05-16T20:08:23.607Z,8.67
2023-05-16T20:10:49.853Z,8.72
2023-05-16T20:13:16.139Z,8.69
2023-05-16T20:15:42.403Z,8.70
2023-05-16T20:18:08.757Z,8.69
2023-05-16T20:20:35.040Z,8.67
2023-05-16T20:23:01.323Z,8.66
2023-05-16T20:25:27.944Z,8.60
2023-05-16T20:27:54.424Z,8.63
2023-05-16T20:30:20.676Z,8.69
2023-05-16T20:32:47.023Z,8.63
2023-05-16T20:35:13.342Z,8.70
2023-05-16T20:37:39.635Z,8.75
2023-05-16T20:40:06.300Z,8.78
2023-05-16T20:42:32.627Z,8.88
2023-05-16T20:44:58.891Z,8.84
2023-05-16T20:47:25.225Z,8.79
2023-05-16T20:49:51.484Z,8.78
2023-05-16T20:52:18.601Z,8.81
2023-05-16T20:54:46.127Z,8.84
2023-05-16T20:57:12.375Z,8.81
2023-05-16T20:59:38.621Z,8.78
2023-05-16T21:02:04.917Z,8.72
2023-05-16T21:04:31.233Z,8.68
2023-05-16T21:06:57.521Z,8.64
2023-05-16T21:09:23.781Z,8.59
2023-05-16T21:11:50.057Z,8.68
2023-05-16T21:14:16.303Z,8.67
2023-05-16T21:16:42.578Z,8.65
2023-05-16T21:19:08.978Z,8.60
2023-05-16T21:21:35.334Z,8.59
2023-05-16T21:24:01.594Z,8.66
2023-05-16T21:26:27.851Z,8.73
2023-05-16T21:28:55.553Z,8.67
2023-05-16T21:31:22.281Z,8.66
2023-05-16T21:33:48.637Z,8.72
2023-05-16T21:36:14.976Z,8.80
2023-05-16T21:38:41.223Z,8.85
2023-05-16T21:41:07.498Z,8.88
2023-05-16T21:43:33.750Z,8.93
2023-05-16T21:45:59.999Z,8.95
2023-05-16T21:48:26.372Z,8.97
2023-05-16T21:50:52.724Z,8.97
2023-05-16T21:53:19.042Z,8.97
2023-05-16T21:55:45.358Z,8.99
2023-05-16T21:58:11.627Z,9.07
2023-05-16T22:00:37.890Z,9.03
2023-05-16T22:03:04.346Z,9.09
2023-05-16T22:05:30.686Z,9.06
2023-05-16T22:07:56.937Z,9.14
2023-05-16T22:10:48.541Z,9.13
2023-05-16T22:13:14.844Z,9.15
2023-05-16T22:16:04.133Z,9.19
2023-05-16T22:21:14.726Z,9.19
2023-05-16T22:23:40.972Z,9.22
2023-05-16T22:26:07.218Z,9.17
2023-05-16T22:28:33.475Z,9.16
2023-05-16T22:30:59.732Z,9.15
2023-05-16T22:33:26.086Z,9.22
2023-05-16T22:35:52.371Z,9.26
2023-05-16T22:38:18.638Z,9.20
2023-05-16T22:40:44.916Z,9.17
2023-05-16T22:43:24.900Z,9.21
2023-05-16T22:45:56.150Z,9.17
2023-05-16T22:48:22.474Z,9.14
2023-05-16T22:50:48.740Z,9.15
2023-05-16T22:53:14.996Z,9.15
2023-05-16T22:55:41.251Z,9.23
2023-05-16T22:58:07.512Z,9.29
2023-05-16T23:00:33.777Z,9.26
2023-05-16T23:09:12.878Z,9.18
2023-05-16T23:11:39.129Z,9.24
2023-05-16T23:14:05.382Z,9.27
2023-05-16T23:16:31.675Z,9.26
2023-05-16T23:18:58.012Z,9.35
2023-05-16T23:21:24.437Z,9.20
2023-05-16T23:24:02.824Z,9.22
2023-05-16T23:29:32.106Z,9.28
2023-05-16T23:31:58.390Z,9.24
2023-05-16T23:34:24.648Z,9.30
2023-05-16T23:36:50.907Z,9.25
2023-05-16T23:39:37.004Z,9.27
2023-05-16T23:42:03.275Z,9.26
2023-05-16T23:47:23.746Z,9.23
2023-05-16T23:49:50.073Z,9.22
2023-05-16T23:52:16.344Z,9.14
2023-05-16T23:54:42.647Z,9.06
2023-05-16T23:57:08.918Z,9.06
2023-05-16T23:59:35.164Z,9.03
